Fidias — A8MP7 — position and weather

sailwx.info

Track history (hours):
 
Tides and Currents Weather Stations Pressure Air Temp Water Temp Dewpoint Dewpoint Depression Visibility Wind Speed Wind Dir Waves Ship Positions

Fidias

Last reported at 2018-Feb-03 05:30 UTC. Time now 2018-Jul-16 00:41 UTC.
Position N 36°10' W 005°24'.
Warning: this ship's position is months out of date.

Length 183 m; draft 8.5 m.

Type: Tanker. MMSI: 636013390.

Date/timePositionNaut miles runAvg speedWind from/ knotsBaromVisibWave heightAir tempDewpointWater temp
2018-Feb-03 05:30N 36°10' W 005°24'0 0.0
2018-Feb-03 04:54N 36°10' W 005°24'7 0.3
2018-Feb-02 02:44N 36°04' W 005°20'210.0
2018-Feb-02 02:31N 36°03' W 005°18'6 4.0
2018-Feb-02 01:00N 36°01' W 005°11'2 3.3
2018-Feb-02 00:30N 36°02' W 005°12'1 2.8
2018-Feb-02 00:00N 36°03' W 005°14'1 1.9
2018-Feb-01 23:30N 36°04' W 005°15'1 1.4
2018-Feb-01 23:00N 36°04' W 005°15'1 1.3
2018-Feb-01 22:01N 36°05' W 005°17'1 1.6
2018-Feb-01 21:30N 36°05' W 005°16'4 1.6
2018-Feb-01 19:06N 36°03' W 005°20'0 2.2
2018-Feb-01 19:00N 36°03' W 005°20'5 3.7
2018-Feb-01 17:40N 35°60' W 005°25'1 8.3
2018-Feb-01 17:31N 35°59' W 005°26'4 8.9
2018-Feb-01 17:01N 35°57' W 005°31'  
2018-Jan-25 19:10N 08°51' W 014°56'212.8
2018-Jan-25 19:00N 08°50' W 014°55'613.1
2018-Jan-25 18:31N 08°45' W 014°50'713.1
2018-Jan-25 18:00N 08°41' W 014°45'713.1
2018-Jan-25 17:30N 08°36' W 014°41'713.1
2018-Jan-25 17:00N 08°31' W 014°37'713.3
2018-Jan-25 16:30N 08°26' W 014°32'713.3
2018-Jan-25 15:59N 08°21' W 014°27'613.0
2018-Jan-25 15:30N 08°16' W 014°23'713.2
2018-Jan-25 14:57N 08°11' W 014°18'613.7
2018-Jan-25 14:30N 08°07' W 014°13'813.5
2018-Jan-25 13:57N 08°01' W 014°08'613.5
2018-Jan-25 13:31N 07°57' W 014°04'713.3
2018-Jan-25 13:00N 07°53' W 013°59'713.4
2018-Jan-25 12:30N 07°49' W 013°53'713.2
2018-Jan-25 12:00N 07°45' W 013°48'1413.8
2018-Jan-25 11:00N 07°38' W 013°36'713.7
2018-Jan-25 10:31N 07°34' W 013°30'714.2
2018-Jan-25 10:00N 07°30' W 013°24'714.9
2018-Jan-25 09:30N 07°26' W 013°18'714.6
2018-Jan-25 09:00N 07°22' W 013°12'  
Track history (hours):
 
Tides and Currents Weather Stations Pressure Air Temp Water Temp Dewpoint Dewpoint Depression Visibility Wind Speed Wind Dir Waves Ship Positions

Fidias

Last reported at 2018-Feb-03 05:30 UTC. Time now 2018-Jul-16 00:41 UTC.
Position N 36°10' W 005°24'.
Warning: this ship's position is months out of date.

Length 183 m; draft 8.5 m.

Type: Tanker. MMSI: 636013390.

Date/timePositionNaut miles runAvg speedWind from/ knotsBaromVisibWave heightAir tempDewpointWater temp
2018-Feb-03 05:30N 36°10' W 005°24'0 0.0
2018-Feb-03 04:54N 36°10' W 005°24'7 0.3
2018-Feb-02 02:44N 36°04' W 005°20'210.0
2018-Feb-02 02:31N 36°03' W 005°18'6 4.0
2018-Feb-02 01:00N 36°01' W 005°11'2 3.3
2018-Feb-02 00:30N 36°02' W 005°12'1 2.8
2018-Feb-02 00:00N 36°03' W 005°14'1 1.9
2018-Feb-01 23:30N 36°04' W 005°15'1 1.4
2018-Feb-01 23:00N 36°04' W 005°15'1 1.3
2018-Feb-01 22:01N 36°05' W 005°17'1 1.6
2018-Feb-01 21:30N 36°05' W 005°16'4 1.6
2018-Feb-01 19:06N 36°03' W 005°20'0 2.2
2018-Feb-01 19:00N 36°03' W 005°20'5 3.7
2018-Feb-01 17:40N 35°60' W 005°25'1 8.3
2018-Feb-01 17:31N 35°59' W 005°26'4 8.9
2018-Feb-01 17:01N 35°57' W 005°31'  
2018-Jan-25 19:10N 08°51' W 014°56'212.8
2018-Jan-25 19:00N 08°50' W 014°55'613.1
2018-Jan-25 18:31N 08°45' W 014°50'713.1
2018-Jan-25 18:00N 08°41' W 014°45'713.1
2018-Jan-25 17:30N 08°36' W 014°41'713.1
2018-Jan-25 17:00N 08°31' W 014°37'713.3
2018-Jan-25 16:30N 08°26' W 014°32'713.3
2018-Jan-25 15:59N 08°21' W 014°27'613.0
2018-Jan-25 15:30N 08°16' W 014°23'713.2
2018-Jan-25 14:57N 08°11' W 014°18'613.7
2018-Jan-25 14:30N 08°07' W 014°13'813.5
2018-Jan-25 13:57N 08°01' W 014°08'613.5
2018-Jan-25 13:31N 07°57' W 014°04'713.3
2018-Jan-25 13:00N 07°53' W 013°59'713.4
2018-Jan-25 12:30N 07°49' W 013°53'713.2
2018-Jan-25 12:00N 07°45' W 013°48'1413.8
2018-Jan-25 11:00N 07°38' W 013°36'713.7
2018-Jan-25 10:31N 07°34' W 013°30'714.2
2018-Jan-25 10:00N 07°30' W 013°24'714.9
2018-Jan-25 09:30N 07°26' W 013°18'714.6
2018-Jan-25 09:00N 07°22' W 013°12'  

Dump ship's entire track history